Carl Junction, MO (64834)

11:01 PM CDT on August 21, 2014 (GMT -0500)
Joplin Regional | Change Station
CLOSE
Current Station
Airport
Location: Joplin,
Elevation: 981 ft
Nearby Weather Stations

Elev 981 ft 37.15 °N, 94.50 °W | Updated 8 minutes ago

Clear
Clear
82 °F
Feels Like 86 °F
N
14
Wind Variable Wind from South

Today
High -- | Low -- °F
--% Chance of Precip.
Yesterday
High -- | Low -- °F
Precip. -- in
6:39 AM 8:02 PM
Waning Crescent, 10% visible
Pressure 29.96 in
Visibility 10.0 miles
Clouds Clear
Heat Index 86 °F
Dew Point 70 °F
Humidity 67%
Rainfall 0.00 in
Snow Depth Not available.
UV 0 out of 12
Pollen 10.90 out of 12
Air Quality Not available.
Flu Activity Not available.
METAR KJLN 220353Z AUTO 19012KT 10SM CLR 28/21 A2999 RMK AO2 SLP143 T02780211

More Conditions Fewer Conditions

Pressure 29.96 in
Visibility 10.0 miles
Clouds Clear
Heat Index 86 °F
Dew Point 70 °F
Humidity 67%
Rainfall 0.00 in
Snow Depth Not available.
UV 0 out of 12
Pollen 10.90 out of 12
Air Quality Not available.
Flu Activity Not available.
METAR KJLN 220353Z AUTO 19012KT 10SM CLR 28/21 A2999 RMK AO2 SLP143 T02780211

More Conditions Fewer Conditions

10-Day Weather Forecast

Almanac

Astronomy

Aug. 21, 2014 Rise Set
Actual Time 6:39 AM CDT 8:02 PM CDT
Civil Twilight 6:12 AM CDT 8:29 PM CDT
Nautical Twilight 5:39 AM CDT 9:01 PM CDT
Astronomical Twilight 5:05 AM CDT 9:36 PM CDT
Moon 3:13 AM CDT (8/21) 5:29 PM CDT (8/21)
Length of Visible Light 14h 16m
Length of Day
13h 22m
Tomorrow will be 2m 10s shorter.
Waning Crescent, 10% of the Moon is Illuminated
Aug 22
Waning Crescent
Aug 25
New
Sep 2
First Quarter
Sep 8
Full
Sep 15
Last Quarter

Today's Extremes

State Highs State Lows

Community

WunderPhotos

Upload Photos

1,746,125 photos uploaded!

Nearby

Snow Depth

Station Depth Elevation
No new snow has been reported.

Earthquake Activity

City Distance Mag. Time & Date
No recent earthquake activity has been reported nearby.
Minimum magnitude displayed is 2.5.

Coastal Water Temperatures

Place Temperature
No Stations Reporting

Nearby Weather Stations